createdAt,value
2022-08-09T00:01:55.257Z,1.60
2022-08-09T00:04:34.700Z,1.60
2022-08-09T00:07:10.427Z,1.80
2022-08-09T00:09:42.003Z,1.90
2022-08-09T00:12:22.444Z,2.10
2022-08-09T00:14:55.946Z,2.20
2022-08-09T00:18:05.273Z,1.90
2022-08-09T00:20:50.439Z,2.20
2022-08-09T00:23:55.722Z,2.00
2022-08-09T00:26:14.487Z,2.00
2022-08-09T00:28:52.587Z,2.00
2022-08-09T00:31:59.764Z,2.10
2022-08-09T00:34:35.660Z,1.60
2022-08-09T00:37:08.926Z,1.40
2022-08-09T00:40:13.460Z,1.80
2022-08-09T00:44:10.305Z,1.90
2022-08-09T00:46:08.465Z,1.80
2022-08-09T00:49:01.496Z,2.10
2022-08-09T00:51:55.964Z,2.10
2022-08-09T00:54:36.835Z,1.80
2022-08-09T00:57:14.223Z,2.00
2022-08-09T01:00:21.438Z,2.00
2022-08-09T01:03:46.346Z,2.00
2022-08-09T01:07:00.475Z,2.00
2022-08-09T01:09:43.848Z,2.00
2022-08-09T01:12:26.627Z,2.00
2022-08-09T01:15:34.529Z,1.60
2022-08-09T01:18:16.071Z,1.90
2022-08-09T01:21:19.684Z,1.90
2022-08-09T01:24:27.152Z,1.70
2022-08-09T01:27:08.210Z,2.10
2022-08-09T01:30:07.103Z,2.00
2022-08-09T01:32:46.390Z,1.80
2022-08-09T01:35:37.517Z,2.00
2022-08-09T01:38:33.561Z,2.00
2022-08-09T01:41:15.244Z,2.20
2022-08-09T01:44:11.665Z,1.80
2022-08-09T01:47:00.972Z,1.80
2022-08-09T01:49:39.217Z,2.10
2022-08-09T01:52:14.804Z,1.90
2022-08-09T01:54:50.592Z,1.90
2022-08-09T01:57:22.390Z,1.60
2022-08-09T02:00:00.261Z,1.60
2022-08-09T02:02:48.033Z,1.60
2022-08-09T02:05:19.180Z,1.90
2022-08-09T02:08:35.300Z,1.90
2022-08-09T02:10:50.856Z,1.80
2022-08-09T02:13:40.257Z,1.70
2022-08-09T02:16:15.982Z,1.80
2022-08-09T02:18:48.005Z,1.90
2022-08-09T02:21:38.413Z,2.10
2022-08-09T02:24:26.892Z,2.10
2022-08-09T02:26:58.686Z,1.90
2022-08-09T02:29:32.756Z,1.70
2022-08-09T02:32:07.637Z,1.40
2022-08-09T02:34:40.873Z,1.60
2022-08-09T02:37:36.767Z,1.50
2022-08-09T02:40:13.055Z,1.80
2022-08-09T02:42:51.150Z,1.60
2022-08-09T02:45:28.924Z,1.70
2022-08-09T02:48:12.320Z,1.80
2022-08-09T02:50:58.729Z,1.90
2022-08-09T02:53:34.442Z,1.80
2022-08-09T02:56:07.871Z,1.90
2022-08-09T02:58:38.046Z,2.00
2022-08-09T03:01:15.199Z,1.50
2022-08-09T03:04:16.603Z,1.50
2022-08-09T03:07:12.403Z,1.40
2022-08-09T03:09:56.248Z,1.80
2022-08-09T03:12:33.672Z,2.10
2022-08-09T03:15:24.036Z,2.10
2022-08-09T03:18:14.117Z,2.00
2022-08-09T03:20:46.531Z,2.00
2022-08-09T03:23:24.726Z,2.00
2022-08-09T03:25:58.455Z,1.60
2022-08-09T03:28:43.649Z,1.60
2022-08-09T03:31:21.276Z,1.80
2022-08-09T03:33:58.528Z,1.60
2022-08-09T03:39:00.923Z,1.90
2022-08-09T03:41:41.826Z,1.80
2022-08-09T03:44:22.499Z,2.10
2022-08-09T03:46:58.086Z,1.50
2022-08-09T03:49:58.979Z,1.70
2022-08-09T03:52:32.450Z,1.80
2022-08-09T03:55:30.142Z,1.90
2022-08-09T03:58:16.120Z,2.40
2022-08-09T04:00:54.307Z,2.10
2022-08-09T04:03:45.849Z,1.90
2022-08-09T04:06:22.048Z,1.70
2022-08-09T04:08:54.432Z,1.50
2022-08-09T04:11:24.929Z,1.80
2022-08-09T04:14:37.090Z,2.10
2022-08-09T04:16:59.478Z,2.10
2022-08-09T04:19:42.923Z,2.20
2022-08-09T04:22:16.243Z,2.20
2022-08-09T04:24:44.268Z,1.70
2022-08-09T04:27:13.672Z,1.90
2022-08-09T04:29:50.063Z,1.80
2022-08-09T04:32:23.563Z,2.10
2022-08-09T04:35:01.116Z,2.30
2022-08-09T04:37:45.214Z,2.20
2022-08-09T04:40:19.375Z,2.10
2022-08-09T04:43:05.983Z,2.10
2022-08-09T04:45:53.158Z,1.50
2022-08-09T04:48:33.172Z,1.80
2022-08-09T04:51:01.683Z,1.90
2022-08-09T04:53:39.572Z,1.60
2022-08-09T04:56:15.556Z,2.10
2022-08-09T04:58:51.024Z,2.00
2022-08-09T05:01:23.200Z,1.90
2022-08-09T05:03:58.661Z,1.40
2022-08-09T05:06:35.326Z,1.90
2022-08-09T05:09:09.743Z,1.50
2022-08-09T05:11:47.142Z,1.90
2022-08-09T05:14:27.857Z,2.00
2022-08-09T05:17:00.005Z,2.10
2022-08-09T05:19:44.503Z,2.30
2022-08-09T05:22:33.355Z,1.60
2022-08-09T05:25:07.156Z,1.80
2022-08-09T05:27:46.680Z,1.70
2022-08-09T05:30:19.548Z,2.10
2022-08-09T05:32:51.033Z,2.00
2022-08-09T05:35:22.115Z,2.20
2022-08-09T05:37:57.205Z,2.20
2022-08-09T05:40:31.786Z,1.90
2022-08-09T05:43:01.656Z,1.40
2022-08-09T05:45:52.607Z,1.60
2022-08-09T05:48:21.043Z,1.70
2022-08-09T05:51:29.865Z,2.00
2022-08-09T05:53:56.552Z,1.80
2022-08-09T05:56:28.593Z,2.00
2022-08-09T05:58:59.688Z,1.80
2022-08-09T06:01:33.946Z,2.20
2022-08-09T06:04:09.806Z,1.50
2022-08-09T06:06:46.722Z,1.60
2022-08-09T06:09:40.441Z,1.50
2022-08-09T06:12:10.993Z,2.00
2022-08-09T06:14:39.061Z,1.50
2022-08-09T06:17:09.170Z,1.90
2022-08-09T06:19:37.154Z,1.80
2022-08-09T06:22:05.882Z,1.80
2022-08-09T06:24:43.125Z,2.20
2022-08-09T06:27:12.664Z,1.80
2022-08-09T06:29:48.289Z,2.50
2022-08-09T06:32:59.109Z,1.80
2022-08-09T06:38:08.971Z,1.50
2022-08-09T06:40:38.850Z,1.80
2022-08-09T06:43:10.617Z,1.70
2022-08-09T06:46:04.663Z,1.80
2022-08-09T06:48:30.921Z,1.80
2022-08-09T06:51:00.200Z,1.80
2022-08-09T06:53:38.134Z,1.60
2022-08-09T06:56:07.279Z,1.50
2022-08-09T07:01:24.252Z,1.70
2022-08-09T07:04:04.115Z,1.70
2022-08-09T07:06:32.043Z,1.70
2022-08-09T07:09:05.092Z,1.90
2022-08-09T07:11:34.271Z,2.10
2022-08-09T07:16:58.529Z,2.20
2022-08-09T07:19:27.269Z,1.90
2022-08-09T07:21:59.031Z,1.80
2022-08-09T07:24:32.878Z,2.10
2022-08-09T07:27:11.011Z,1.80
2022-08-09T07:29:57.223Z,2.10
2022-08-09T07:32:32.424Z,2.30
2022-08-09T07:35:10.443Z,2.40
2022-08-09T07:37:45.745Z,2.00
2022-08-09T07:40:17.238Z,2.00
2022-08-09T07:42:50.093Z,2.00
2022-08-09T07:45:23.759Z,2.00
2022-08-09T07:48:05.866Z,1.90
2022-08-09T07:50:34.690Z,2.60
2022-08-09T07:53:06.231Z,2.30
2022-08-09T07:55:41.301Z,1.90
2022-08-09T07:58:26.325Z,2.00
2022-08-09T08:00:58.656Z,1.90
2022-08-09T08:03:36.788Z,2.40
2022-08-09T08:06:05.815Z,2.40
2022-08-09T08:08:59.894Z,2.80
2022-08-09T08:12:10.751Z,2.90
2022-08-09T08:14:07.983Z,2.10
2022-08-09T08:16:36.716Z,2.00
2022-08-09T08:19:13.096Z,1.90
2022-08-09T08:21:41.856Z,2.20
2022-08-09T08:24:20.310Z,2.50
2022-08-09T08:26:56.026Z,2.40
2022-08-09T08:29:27.303Z,2.70
2022-08-09T08:32:05.519Z,2.50
2022-08-09T08:34:36.278Z,1.70
2022-08-09T08:39:44.443Z,2.20
2022-08-09T08:42:12.451Z,2.50
2022-08-09T08:44:40.509Z,2.60
2022-08-09T08:47:12.938Z,2.30
2022-08-09T08:49:48.005Z,2.50
2022-08-09T08:55:10.487Z,1.70
2022-08-09T08:57:41.179Z,2.30
2022-08-09T09:00:20.416Z,2.90
2022-08-09T09:03:02.827Z,2.70
2022-08-09T09:05:58.425Z,2.30
2022-08-09T09:08:29.951Z,2.40
2022-08-09T09:11:05.492Z,2.10
2022-08-09T09:13:47.421Z,1.70
2022-08-09T09:16:30.404Z,2.00
2022-08-09T09:22:00.626Z,2.30
2022-08-09T09:24:35.011Z,2.50
2022-08-09T09:27:06.231Z,2.60
2022-08-09T09:30:08.606Z,2.70
2022-08-09T09:32:34.204Z,2.30
2022-08-09T09:35:15.919Z,2.60
2022-08-09T09:37:47.452Z,2.50
2022-08-09T09:40:17.997Z,2.40
2022-08-09T09:42:55.939Z,2.40
2022-08-09T10:19:02.230Z,2.00
2022-08-09T10:21:32.897Z,2.00
2022-08-09T10:24:06.913Z,2.50
2022-08-09T10:26:52.787Z,2.00
2022-08-09T10:29:36.742Z,2.50
2022-08-09T10:32:42.628Z,2.70
2022-08-09T10:35:16.507Z,2.70
2022-08-09T10:37:54.519Z,1.80
2022-08-09T10:40:50.190Z,2.30
2022-08-09T10:43:20.379Z,2.40
2022-08-09T10:45:49.406Z,2.50
2022-08-09T10:48:31.651Z,2.50
2022-08-09T10:51:14.922Z,2.40
2022-08-09T10:54:17.372Z,2.60
2022-08-09T10:57:09.263Z,2.50
2022-08-09T10:59:57.673Z,2.50
2022-08-09T11:03:14.130Z,1.90
2022-08-09T11:05:31.677Z,2.00
2022-08-09T11:08:47.537Z,2.30
2022-08-09T11:11:20.958Z,2.20
2022-08-09T11:14:35.354Z,2.20
2022-08-09T11:17:19.262Z,2.30
2022-08-09T11:20:10.044Z,2.40
2022-08-09T11:22:56.923Z,2.70
2022-08-09T11:25:54.706Z,2.80
2022-08-09T11:28:33.795Z,2.20
2022-08-09T11:31:09.671Z,2.50
2022-08-09T11:33:44.363Z,2.30
2022-08-09T11:36:30.197Z,2.30
2022-08-09T11:39:05.485Z,2.50
2022-08-09T11:41:40.450Z,2.40
2022-08-09T11:44:10.880Z,2.30
2022-08-09T11:46:51.913Z,2.60
2022-08-09T11:50:53.082Z,2.70
2022-08-09T11:53:21.255Z,2.60
2022-08-09T11:56:02.517Z,2.30
2022-08-09T11:58:32.973Z,2.40
2022-08-09T12:01:37.672Z,2.50
2022-08-09T12:04:23.631Z,2.20
2022-08-09T12:06:59.892Z,2.40
2022-08-09T12:09:27.963Z,2.20
2022-08-09T12:12:12.142Z,2.20
2022-08-09T12:15:03.827Z,2.40
2022-08-09T12:20:21.996Z,2.30
2022-08-09T12:23:02.916Z,2.50
2022-08-09T12:25:37.210Z,1.80
2022-08-09T12:29:13.385Z,1.70
2022-08-09T12:31:10.891Z,2.00
2022-08-09T12:34:01.094Z,1.90
2022-08-09T12:36:32.048Z,1.80
2022-08-09T12:39:06.387Z,2.00
2022-08-09T12:41:40.839Z,2.00
2022-08-09T12:44:13.189Z,2.30
2022-08-09T12:46:50.075Z,2.10
2022-08-09T12:49:24.940Z,2.10
2022-08-09T12:52:02.695Z,2.40
2022-08-09T12:55:03.168Z,2.10
2022-08-09T12:57:46.381Z,1.70
2022-08-09T13:00:25.566Z,1.40
2022-08-09T13:03:01.448Z,1.70
2022-08-09T13:05:51.556Z,1.60
2022-08-09T13:08:39.775Z,1.60
2022-08-09T13:11:22.816Z,1.80
2022-08-09T13:14:42.181Z,1.80
2022-08-09T13:16:56.408Z,2.10
2022-08-09T13:20:07.574Z,1.90
2022-08-09T13:23:00.347Z,1.50
2022-08-09T13:25:13.755Z,1.70
2022-08-09T13:27:54.758Z,1.80
2022-08-09T13:30:49.944Z,1.80
2022-08-09T13:33:22.891Z,1.90
2022-08-09T13:36:38.601Z,1.60
2022-08-09T13:38:55.838Z,1.80
2022-08-09T13:41:58.849Z,1.80
2022-08-09T13:44:17.107Z,1.90
2022-08-09T13:47:27.569Z,1.60
2022-08-09T13:49:37.748Z,1.60
2022-08-09T13:52:09.715Z,1.80
2022-08-09T13:54:59.147Z,1.60
2022-08-09T13:57:35.508Z,1.80
2022-08-09T14:00:18.225Z,2.20
2022-08-09T14:05:58.314Z,2.30
2022-08-09T14:08:28.172Z,1.50
2022-08-09T14:10:57.283Z,1.40
2022-08-09T14:14:23.568Z,1.60
2022-08-09T14:16:20.032Z,1.80
2022-08-09T14:18:59.526Z,2.30
2022-08-09T14:21:29.524Z,2.20
2022-08-09T14:24:09.974Z,2.10
2022-08-09T14:26:41.686Z,1.70
2022-08-09T14:30:04.321Z,1.80
2022-08-09T14:32:13.012Z,2.00
2022-08-09T14:34:42.145Z,1.90
2022-08-09T14:37:12.882Z,2.00
2022-08-09T14:39:46.868Z,1.70
2022-08-09T14:42:32.749Z,2.00
2022-08-09T14:46:46.137Z,1.80
2022-08-09T14:47:58.558Z,1.70
2022-08-09T14:50:32.293Z,1.50
2022-08-09T14:53:11.006Z,2.10
2022-08-09T14:55:48.054Z,2.00
2022-08-09T14:58:18.456Z,1.80
2022-08-09T15:00:48.509Z,2.30
2022-08-09T15:03:22.755Z,1.40
2022-08-09T15:06:05.197Z,1.60
2022-08-09T15:08:35.681Z,1.70
2022-08-09T15:11:08.582Z,1.90
2022-08-09T15:13:48.655Z,2.10
2022-08-09T15:16:52.513Z,1.60
2022-08-09T15:19:26.097Z,2.30
2022-08-09T15:22:06.418Z,1.50
2022-08-09T15:27:07.227Z,1.80
2022-08-09T15:30:55.392Z,2.10
2022-08-09T15:32:42.034Z,2.30
2022-08-09T15:35:40.068Z,1.90
2022-08-09T15:38:10.405Z,2.20
2022-08-09T15:40:49.569Z,2.10
2022-08-09T15:43:19.467Z,1.80
2022-08-09T15:46:28.499Z,1.90
2022-08-09T15:49:04.849Z,1.60
2022-08-09T15:52:02.760Z,1.80
2022-08-09T15:54:44.724Z,1.60
2022-08-09T15:57:44.194Z,2.00
2022-08-09T16:00:29.913Z,1.80
2022-08-09T16:03:01.451Z,1.20
2022-08-09T16:05:53.553Z,1.40
2022-08-09T16:08:29.877Z,1.70
2022-08-09T16:11:00.124Z,1.70
2022-08-09T16:14:05.289Z,1.80
2022-08-09T16:16:34.604Z,1.80
2022-08-09T16:19:10.535Z,1.60
2022-08-09T16:21:58.013Z,1.80
2022-08-09T16:24:33.475Z,1.20
2022-08-09T16:27:05.172Z,1.40
2022-08-09T16:29:50.547Z,1.40
2022-08-09T16:32:33.897Z,1.40
2022-08-09T16:35:02.690Z,1.70
2022-08-09T16:37:53.831Z,1.60
2022-08-09T16:40:40.677Z,1.60
2022-08-09T16:43:11.402Z,1.60
2022-08-09T16:45:44.388Z,1.00
2022-08-09T16:48:50.454Z,1.30
2022-08-09T16:51:26.110Z,1.40
2022-08-09T16:54:34.252Z,1.50
2022-08-09T16:57:18.156Z,1.50
2022-08-09T16:59:50.346Z,1.70
2022-08-09T17:02:49.350Z,1.70
2022-08-09T17:05:19.761Z,1.70
2022-08-09T17:10:51.859Z,1.10
2022-08-09T17:13:24.968Z,1.50
2022-08-09T17:16:05.125Z,1.90
2022-08-09T17:18:32.536Z,1.50
2022-08-09T17:21:23.653Z,1.60
2022-08-09T17:24:20.954Z,1.60
2022-08-09T17:26:53.419Z,1.90
2022-08-09T17:29:21.129Z,1.50
2022-08-09T17:31:51.387Z,1.30
2022-08-09T17:35:01.443Z,1.50
2022-08-09T17:37:06.751Z,1.50
2022-08-09T17:39:52.990Z,1.70
2022-08-09T17:42:41.946Z,1.60
2022-08-09T17:45:23.768Z,1.70
2022-08-09T17:48:02.909Z,1.40
2022-08-09T17:50:37.092Z,1.50
2022-08-09T17:53:21.685Z,1.20
2022-08-09T17:55:57.631Z,1.40
2022-08-09T17:58:34.499Z,1.60
2022-08-09T18:01:11.093Z,2.00
2022-08-09T18:03:55.845Z,1.90
2022-08-09T18:06:32.420Z,1.30
2022-08-09T18:09:19.206Z,1.40
2022-08-09T18:12:14.557Z,1.40
2022-08-09T18:14:50.083Z,1.60
2022-08-09T18:18:03.750Z,1.60
2022-08-09T18:20:54.059Z,1.70
2022-08-09T18:24:10.338Z,2.10
2022-08-09T18:26:23.038Z,1.70
2022-08-09T18:30:35.164Z,1.70
2022-08-09T18:32:03.133Z,1.70
2022-08-09T18:34:44.704Z,1.90
2022-08-09T18:37:47.248Z,2.00
2022-08-09T18:40:26.890Z,2.10
2022-08-09T18:42:58.674Z,2.10
2022-08-09T18:46:46.027Z,1.70
2022-08-09T18:48:17.897Z,1.80
2022-08-09T18:51:00.126Z,1.90
2022-08-09T18:53:56.578Z,2.20
2022-08-09T18:56:27.150Z,2.30
2022-08-09T18:58:58.373Z,2.10
2022-08-09T19:01:52.612Z,2.10
2022-08-09T19:04:34.532Z,1.80
2022-08-09T19:07:02.251Z,2.00
2022-08-09T19:10:16.571Z,1.80
2022-08-09T19:12:28.890Z,2.10
2022-08-09T19:14:56.475Z,2.40
2022-08-09T19:17:24.167Z,2.50
2022-08-09T19:20:00.798Z,2.50
2022-08-09T19:22:36.347Z,2.00
2022-08-09T19:25:41.338Z,1.90
2022-08-09T19:28:07.559Z,2.00
2022-08-09T19:30:57.364Z,1.80
2022-08-09T19:33:54.837Z,2.10
2022-08-09T19:36:43.724Z,2.10
2022-08-09T19:40:04.725Z,2.20
2022-08-09T19:42:33.220Z,2.00
2022-08-09T19:45:13.907Z,1.70
2022-08-09T19:47:41.071Z,1.80
2022-08-09T19:50:50.293Z,1.70
2022-08-09T19:53:12.430Z,1.50
2022-08-09T19:58:35.788Z,1.70
2022-08-09T20:01:05.466Z,1.40
2022-08-09T20:04:26.567Z,1.60
2022-08-09T20:07:04.112Z,1.50
2022-08-09T20:09:44.510Z,1.50
2022-08-09T20:12:27.475Z,2.10
2022-08-09T20:16:32.001Z,1.70
2022-08-09T20:18:27.799Z,1.40
2022-08-09T20:21:03.125Z,1.60
2022-08-09T20:26:54.984Z,1.90
2022-08-09T20:30:03.331Z,1.80
2022-08-09T20:33:02.708Z,1.80
2022-08-09T20:35:38.703Z,1.30
2022-08-09T20:38:22.266Z,1.40
2022-08-09T20:41:03.145Z,1.70
2022-08-09T20:44:01.835Z,1.60
2022-08-09T20:46:56.026Z,1.50
2022-08-09T20:49:43.373Z,1.70
2022-08-09T20:52:39.408Z,1.30
2022-08-09T20:55:21.076Z,1.50
2022-08-09T20:58:23.623Z,1.70
2022-08-09T21:01:14.315Z,1.80
2022-08-09T21:04:14.177Z,1.70
2022-08-09T21:07:59.811Z,1.70
2022-08-09T21:10:36.019Z,1.40
2022-08-09T21:13:07.501Z,1.40
2022-08-09T21:15:51.791Z,1.60
2022-08-09T21:20:02.543Z,1.70
2022-08-09T21:21:57.607Z,1.90
2022-08-09T21:25:09.803Z,1.90
2022-08-09T21:28:17.322Z,1.70
2022-08-09T21:31:49.212Z,1.60
2022-08-09T21:35:12.470Z,1.70
2022-08-09T21:38:09.781Z,1.80
2022-08-09T21:43:57.162Z,2.20
2022-08-09T21:46:50.871Z,4.60
2022-08-09T21:49:43.175Z,7.70
2022-08-09T21:52:44.386Z,10.60
2022-08-09T21:55:46.612Z,9.90
2022-08-09T21:58:31.190Z,10.90
2022-08-09T22:01:26.238Z,10.50
2022-08-09T22:04:23.058Z,7.20
2022-08-09T22:07:41.258Z,7.30
2022-08-09T22:10:30.809Z,8.30
2022-08-09T22:13:44.588Z,7.10
2022-08-09T22:16:43.391Z,7.60
2022-08-09T22:19:23.791Z,6.10
2022-08-09T22:22:25.033Z,6.00
2022-08-09T22:26:05.336Z,6.80
2022-08-09T22:28:53.875Z,6.60
2022-08-09T22:31:57.579Z,6.30
2022-08-09T22:34:30.348Z,6.70
2022-08-09T22:37:28.401Z,6.40
2022-08-09T22:40:49.049Z,5.20
2022-08-09T22:44:02.011Z,4.50
2022-08-09T22:48:11.234Z,3.90
2022-08-09T22:50:33.017Z,3.90
2022-08-09T22:53:58.257Z,5.00
2022-08-09T22:57:06.541Z,5.00
2022-08-09T23:00:32.478Z,3.90
2022-08-09T23:04:02.405Z,3.70
2022-08-09T23:06:56.988Z,4.10
2022-08-09T23:10:06.629Z,4.30
2022-08-09T23:12:59.245Z,3.60
2022-08-09T23:16:03.409Z,3.20
2022-08-09T23:18:47.147Z,2.60
2022-08-09T23:21:23.938Z,2.10
2022-08-09T23:24:11.846Z,2.50
2022-08-09T23:27:12.171Z,2.40
2022-08-09T23:30:07.785Z,2.20
2022-08-09T23:32:52.572Z,1.70
2022-08-09T23:36:04.969Z,1.70
2022-08-09T23:38:49.122Z,1.70
2022-08-09T23:41:43.795Z,1.70
2022-08-09T23:44:49.734Z,2.40
2022-08-09T23:47:49.094Z,2.00
2022-08-09T23:50:41.108Z,2.20
2022-08-09T23:53:22.696Z,1.60
2022-08-09T23:56:53.582Z,1.50
